KSJT/SJT METAR and TAF weather

Enter ICAO airport designator
Station Type Date Time Source
KSJT METAR 2019/02/17 06:51 UTC NOAA

KSJT 170651Z AUTO 25004KT 10SM CLR 11/01 A2973 RMK AO2 SLP063 T01110011


Station Type Date Time Source
KSJT Decoded METAR 2019/02/17 06:51 UTC NOAA

MATHIS FIELD, TX, United States (KSJT) 31-21N 100-30W 581M
Feb 17, 2019 - 01:51 AM EST / 2019.02.17 0651 UTC
Wind: from the WSW (250 degrees) at 5 MPH (4 KT):0
Visibility: 10 mile(s):0
Sky conditions: clear
Temperature: 52.0 F (11.1 C)
Dew Point: 34.0 F (1.1 C)
Relative Humidity: 50%
Pressure (altimeter): 29.73 in. Hg (1006 hPa)
ob: KSJT 170651Z AUTO 25004KT 10SM CLR 11/01 A2973 RMK AO2 SLP063 T01110011
cycle: 7

Station Type Date Time Source
KSJT TAF 2019/02/17 06:22 UTC NOAA

TAF KSJT 170520Z 1706/1806 VRB03KT P6SM FEW250
FM170700 27006KT P6SM FEW250
FM171100 36011KT P6SM FEW250
FM172100 05007KT P6SM SCT250


Example: see airport list